Time;durP1;ratioP1;P1;durP2;ratioP2;P2;SDS_P1;SDS_P2;PMS_P1;PMS_P2;Temp;Humidity;BMP_temperature;BMP_pressure;BME280_temperature;BME280_humidity;BME280_pressure;Samples;Min_cycle;Max_cycle;Signal;HPM_P1;HPM_P2
2023/07/25 00:00:23;;;;;;;;;5.00;4.33;;;;;;;;5097745;27;46017;-72
2023/07/25 00:02:49;;;;;;;;;3.67;3.67;;;;;;;;5097927;27;45329;-72
2023/07/25 00:05:14;;;;;;;;;5.00;4.00;;;;;;;;5096811;27;45358;-73
2023/07/25 00:07:40;;;;;;;;;8.33;4.00;;;;;;;;5098079;27;45397;-73
2023/07/25 00:10:05;;;;;;;;;5.67;3.67;;;;;;;;5097834;27;45478;-73
2023/07/25 00:12:30;;;;;;;;;4.00;3.00;;;;;;;;5097836;27;45433;-73
2023/07/25 00:14:56;;;;;;;;;5.00;4.00;;;;;;;;5097889;27;45206;-73
2023/07/25 00:17:21;;;;;;;;;4.00;2.67;;;;;;;;5097940;27;45436;-73
2023/07/25 00:19:46;;;;;;;;;3.67;3.67;;;;;;;;5097832;27;45487;-73
2023/07/25 00:22:12;;;;;;;;;4.00;3.67;;;;;;;;5097571;27;45445;-73
2023/07/25 00:24:37;;;;;;;;;4.67;4.00;;;;;;;;5097792;27;45316;-73
2023/07/25 00:27:02;;;;;;;;;6.00;4.67;;;;;;;;5097918;27;45317;-72
2023/07/25 00:29:28;;;;;;;;;5.00;4.00;;;;;;;;5097513;27;45586;-72
2023/07/25 00:31:53;;;;;;;;;3.33;3.00;;;;;;;;5097579;27;45515;-72
2023/07/25 00:34:18;;;;;;;;;3.00;3.00;;;;;;;;5100191;27;45373;-72
2023/07/25 00:36:44;;;;;;;;;4.00;4.00;;;;;;;;5101701;27;45440;-72
2023/07/25 00:39:10;;;;;;;;;4.00;4.00;;;;;;;;5101284;27;45979;-72
2023/07/25 00:41:36;;;;;;;;;4.00;3.67;;;;;;;;5101056;27;45225;-71
2023/07/25 00:44:01;;;;;;;;;6.67;4.67;;;;;;;;5099871;27;45319;-72
2023/07/25 00:46:27;;;;;;;;;4.00;3.67;;;;;;;;5101495;27;45448;-71
2023/07/25 00:48:52;;;;;;;;;5.33;4.00;;;;;;;;5100922;27;45866;-71
2023/07/25 00:51:18;;;;;;;;;5.33;4.33;;;;;;;;5100031;27;45595;-73
2023/07/25 00:53:43;;;;;;;;;5.33;2.67;;;;;;;;5101154;27;45198;-73
2023/07/25 00:56:09;;;;;;;;;5.00;3.67;;;;;;;;5100002;27;45455;-73
2023/07/25 00:58:34;;;;;;;;;3.67;3.67;;;;;;;;5100885;27;46107;-73
2023/07/25 01:01:03;;;;;;;;;3.67;3.00;;;;;;;;5100845;27;45236;-73
2023/07/25 01:03:29;;;;;;;;;3.00;3.00;;;;;;;;5100807;27;45351;-73
2023/07/25 01:05:56;;;;;;;;;5.00;5.00;;;;;;;;5101040;27;45233;-73
2023/07/25 01:08:22;;;;;;;;;6.33;4.00;;;;;;;;5100727;27;45440;-72
2023/07/25 01:10:47;;;;;;;;;6.00;4.00;;;;;;;;5101010;27;45389;-73
2023/07/25 01:13:12;;;;;;;;;7.00;4.00;;;;;;;;5100780;27;45441;-72
2023/07/25 01:15:38;;;;;;;;;5.33;3.67;;;;;;;;5100881;27;45485;-73
2023/07/25 01:18:05;;;;;;;;;3.00;2.67;;;;;;;;5100306;27;45994;-73
2023/07/25 01:20:32;;;;;;;;;4.00;3.67;;;;;;;;5100617;27;45402;-73
2023/07/25 01:22:57;;;;;;;;;7.00;4.00;;;;;;;;5100496;27;45479;-73
2023/07/25 01:25:23;;;;;;;;;4.33;3.33;;;;;;;;5100585;27;45390;-73
2023/07/25 01:27:48;;;;;;;;;3.33;2.67;;;;;;;;5100555;27;45920;-72
2023/07/25 01:30:13;;;;;;;;;5.00;4.00;;;;;;;;5100373;27;45486;-73
2023/07/25 01:32:39;;;;;;;;;9.00;4.00;;;;;;;;5100357;27;45525;-73
2023/07/25 01:35:04;;;;;;;;;4.67;4.33;;;;;;;;5100601;27;45258;-73
2023/07/25 01:37:30;;;;;;;;;3.33;2.67;;;;;;;;5100281;27;46028;-72
2023/07/25 01:39:55;;;;;;;;;5.67;2.67;;;;;;;;5100180;27;45315;-72
2023/07/25 01:42:20;;;;;;;;;3.00;3.00;;;;;;;;5100565;27;45236;-73
2023/07/25 01:44:46;;;;;;;;;5.00;3.00;;;;;;;;5100509;27;45320;-73
2023/07/25 01:47:11;;;;;;;;;5.33;4.00;;;;;;;;5098564;27;46902;-73
2023/07/25 01:49:36;;;;;;;;;4.00;3.00;;;;;;;;5100140;27;45227;-73
2023/07/25 01:52:02;;;;;;;;;2.00;2.00;;;;;;;;5100195;27;45478;-72
2023/07/25 01:54:27;;;;;;;;;4.33;4.00;;;;;;;;5100323;27;45377;-72
2023/07/25 01:56:53;;;;;;;;;4.00;3.33;;;;;;;;5100182;27;45252;-72
2023/07/25 01:59:18;;;;;;;;;4.67;4.00;;;;;;;;5099855;27;45440;-73
2023/07/25 02:01:43;;;;;;;;;3.33;2.33;;;;;;;;5099873;27;45457;-73
2023/07/25 02:04:09;;;;;;;;;4.67;3.67;;;;;;;;5100263;27;45325;-73
2023/07/25 02:06:34;;;;;;;;;5.00;3.33;;;;;;;;5099873;27;45930;-73
2023/07/25 02:08:59;;;;;;;;;3.33;3.33;;;;;;;;5099855;27;45425;-73
2023/07/25 02:11:25;;;;;;;;;4.00;3.00;;;;;;;;5099959;27;45460;-73
2023/07/25 02:13:50;;;;;;;;;4.00;3.00;;;;;;;;5100261;27;45423;-73
2023/07/25 02:16:15;;;;;;;;;4.33;3.00;;;;;;;;5099503;27;46147;-73
2023/07/25 02:18:41;;;;;;;;;3.00;3.00;;;;;;;;5098234;27;45430;-73
2023/07/25 02:21:06;;;;;;;;;4.67;3.00;;;;;;;;5099805;27;45232;-73
2023/07/25 02:23:31;;;;;;;;;4.00;3.00;;;;;;;;5099673;27;45393;-73
2023/07/25 02:25:56;;;;;;;;;3.00;3.00;;;;;;;;5099463;27;45905;-74
2023/07/25 02:28:22;;;;;;;;;3.33;3.00;;;;;;;;5099815;27;45420;-72
2023/07/25 02:30:47;;;;;;;;;4.00;3.67;;;;;;;;5099597;27;45681;-73
2023/07/25 02:33:13;;;;;;;;;5.00;3.00;;;;;;;;5099602;27;45435;-73
2023/07/25 02:35:38;;;;;;;;;4.00;3.00;;;;;;;;5099234;27;45491;-73
2023/07/25 02:38:03;;;;;;;;;4.67;3.00;;;;;;;;5099178;27;45399;-73
2023/07/25 02:40:29;;;;;;;;;5.67;4.67;;;;;;;;5099288;27;45889;-73
2023/07/25 02:42:54;;;;;;;;;4.00;3.67;;;;;;;;5099802;27;45314;-73
2023/07/25 02:45:19;;;;;;;;;3.33;3.33;;;;;;;;5099257;27;45231;-73
2023/07/25 02:47:45;;;;;;;;;5.33;4.00;;;;;;;;5099005;27;45389;-73
2023/07/25 02:50:10;;;;;;;;;3.00;3.00;;;;;;;;5099371;27;45495;-73
2023/07/25 02:52:35;;;;;;;;;3.67;3.00;;;;;;;;5099319;27;45290;-73
2023/07/25 02:55:01;;;;;;;;;6.00;4.00;;;;;;;;5098963;27;46185;-73
2023/07/25 02:57:26;;;;;;;;;4.00;3.00;;;;;;;;5098750;27;45356;-73
2023/07/25 02:59:51;;;;;;;;;3.00;3.00;;;;;;;;5099156;27;45208;-73
2023/07/25 03:02:17;;;;;;;;;3.00;2.67;;;;;;;;5099128;27;45592;-73
2023/07/25 03:04:42;;;;;;;;;5.00;3.00;;;;;;;;5099061;27;46076;-73
2023/07/25 03:07:07;;;;;;;;;5.67;3.00;;;;;;;;5098711;27;45923;-73
2023/07/25 03:09:33;;;;;;;;;7.00;3.00;;;;;;;;5098884;27;45558;-73
2023/07/25 03:11:58;;;;;;;;;4.67;4.67;;;;;;;;5098977;27;45341;-72
2023/07/25 03:14:23;;;;;;;;;6.33;4.00;;;;;;;;5098954;27;45466;-73
2023/07/25 03:16:49;;;;;;;;;3.67;3.67;;;;;;;;5098645;27;45448;-73
2023/07/25 03:19:14;;;;;;;;;5.00;3.67;;;;;;;;5098863;27;45705;-73
2023/07/25 03:21:39;;;;;;;;;5.00;3.67;;;;;;;;5098970;27;45440;-72
2023/07/25 03:24:04;;;;;;;;;4.67;3.00;;;;;;;;5098521;27;45541;-74
2023/07/25 03:26:30;;;;;;;;;4.33;3.67;;;;;;;;5098606;27;45466;-73
2023/07/25 03:28:55;;;;;;;;;6.33;4.67;;;;;;;;5099050;27;45249;-73
2023/07/25 03:31:20;;;;;;;;;4.00;3.00;;;;;;;;5098732;27;45498;-73
2023/07/25 03:33:46;;;;;;;;;4.00;3.00;;;;;;;;5098525;27;45982;-73
2023/07/25 03:36:11;;;;;;;;;3.00;3.00;;;;;;;;5097034;27;45444;-73
2023/07/25 03:38:36;;;;;;;;;5.33;3.67;;;;;;;;5098444;27;45534;-73
2023/07/25 03:41:02;;;;;;;;;5.00;4.67;;;;;;;;5098616;27;45472;-73
2023/07/25 03:43:27;;;;;;;;;6.33;5.33;;;;;;;;5098494;27;45960;-72
2023/07/25 03:45:52;;;;;;;;;4.00;4.00;;;;;;;;5098161;27;45437;-73
2023/07/25 03:48:18;;;;;;;;;5.00;3.67;;;;;;;;5098371;27;45535;-73
2023/07/25 03:50:43;;;;;;;;;5.33;4.33;;;;;;;;5098553;27;45295;-72
2023/07/25 03:53:08;;;;;;;;;5.67;5.00;;;;;;;;5098169;27;45399;-72
2023/07/25 03:55:34;;;;;;;;;4.67;4.67;;;;;;;;5098123;27;45374;-72
2023/07/25 03:57:59;;;;;;;;;6.00;4.67;;;;;;;;5098663;27;45332;-72
2023/07/25 04:00:24;;;;;;;;;5.67;4.67;;;;;;;;5098236;27;45569;-73
2023/07/25 04:02:50;;;;;;;;;6.00;4.00;;;;;;;;5097793;27;45391;-72
2023/07/25 04:05:15;;;;;;;;;4.00;2.67;;;;;;;;5097962;27;45568;-73
2023/07/25 04:07:40;;;;;;;;;5.00;4.00;;;;;;;;5097188;27;45336;-72
2023/07/25 04:10:06;;;;;;;;;5.00;4.00;;;;;;;;5098114;27;45490;-73
2023/07/25 04:12:31;;;;;;;;;4.33;3.33;;;;;;;;5097916;27;45310;-72
2023/07/25 04:14:57;;;;;;;;;4.00;3.67;;;;;;;;5098065;27;45292;-71
2023/07/25 04:17:22;;;;;;;;;5.00;4.00;;;;;;;;5097825;27;45513;-72
2023/07/25 04:19:48;;;;;;;;;3.00;3.00;;;;;;;;5098183;27;45451;-72
2023/07/25 04:22:13;;;;;;;;;4.67;3.33;;;;;;;;5097584;27;45319;-72
2023/07/25 04:24:38;;;;;;;;;4.00;3.67;;;;;;;;5104595;27;45430;-72
2023/07/25 04:27:04;;;;;;;;;5.00;4.00;;;;;;;;5105719;27;45356;-72
2023/07/25 04:29:29;;;;;;;;;4.67;4.00;;;;;;;;5102266;27;45690;-71
2023/07/25 04:31:55;;;;;;;;;4.00;4.00;;;;;;;;5087143;27;46019;-72
2023/07/25 04:34:21;;;;;;;;;5.33;4.00;;;;;;;;5086139;27;45634;-72
2023/07/25 04:36:46;;;;;;;;;4.00;2.67;;;;;;;;5085891;27;45448;-72
2023/07/25 04:39:17;;;;;;;;;3.00;3.00;;;;;;;;5090106;27;45438;-72
2023/07/25 04:41:42;;;;;;;;;3.33;3.00;;;;;;;;5085713;27;46149;-72
2023/07/25 04:44:08;;;;;;;;;5.00;5.00;;;;;;;;5086042;27;45477;-72
2023/07/25 04:46:33;;;;;;;;;4.33;3.33;;;;;;;;5087274;27;45566;-72
2023/07/25 04:48:58;;;;;;;;;4.00;3.67;;;;;;;;5087429;27;45592;-72
2023/07/25 04:51:24;;;;;;;;;3.00;2.67;;;;;;;;5086439;27;45271;-71
2023/07/25 04:53:49;;;;;;;;;3.67;3.67;;;;;;;;5085404;27;45296;-72
2023/07/25 04:56:14;;;;;;;;;8.67;5.00;;;;;;;;5087310;27;45465;-73
2023/07/25 04:58:41;;;;;;;;;5.00;3.00;;;;;;;;5086039;27;45614;-72
2023/07/25 05:01:09;;;;;;;;;3.67;3.67;;;;;;;;5085367;27;46213;-72
2023/07/25 05:03:35;;;;;;;;;3.67;3.67;;;;;;;;5086864;27;45378;-72
2023/07/25 05:06:00;;;;;;;;;5.00;4.33;;;;;;;;5086309;27;45348;-73
2023/07/25 05:08:26;;;;;;;;;4.00;4.00;;;;;;;;5085889;27;45289;-73
2023/07/25 05:10:52;;;;;;;;;5.67;4.67;;;;;;;;5085340;27;46259;-72
2023/07/25 05:13:18;;;;;;;;;4.33;3.33;;;;;;;;5085178;27;45868;-72
2023/07/25 05:15:44;;;;;;;;;7.67;6.00;;;;;;;;5084468;27;45318;-72
2023/07/25 05:18:09;;;;;;;;;6.00;6.00;;;;;;;;5085656;27;45491;-72
2023/07/25 05:20:34;;;;;;;;;7.33;5.00;;;;;;;;5087131;27;45311;-72
2023/07/25 05:23:00;;;;;;;;;4.33;4.00;;;;;;;;5090080;27;45302;-72
2023/07/25 05:25:25;;;;;;;;;4.67;4.33;;;;;;;;5089853;27;45535;-71
2023/07/25 05:27:50;;;;;;;;;5.00;4.00;;;;;;;;5088575;27;45583;-72
2023/07/25 05:30:16;;;;;;;;;5.33;4.00;;;;;;;;5089875;27;45554;-73
2023/07/25 05:32:41;;;;;;;;;5.00;4.67;;;;;;;;5088889;27;45538;-73
2023/07/25 05:35:07;;;;;;;;;4.33;4.00;;;;;;;;5083204;27;45436;-72
2023/07/25 05:37:35;;;;;;;;;4.00;3.67;;;;;;;;5079747;27;45495;-73
2023/07/25 05:40:02;;;;;;;;;4.67;4.00;;;;;;;;5080001;28;45370;-73
2023/07/25 05:42:27;;;;;;;;;4.33;4.33;;;;;;;;5079589;27;45589;-73
2023/07/25 05:44:52;;;;;;;;;4.00;4.00;;;;;;;;5079605;27;45462;-73
2023/07/25 05:47:18;;;;;;;;;5.00;4.33;;;;;;;;5079951;27;45369;-73
2023/07/25 05:49:43;;;;;;;;;8.33;7.00;;;;;;;;5079171;28;45457;-73
2023/07/25 05:52:08;;;;;;;;;4.33;3.33;;;;;;;;5079506;28;45401;-73
2023/07/25 05:54:34;;;;;;;;;2.67;1.67;;;;;;;;5079887;27;45313;-73
2023/07/25 05:57:01;;;;;;;;;0.67;0.67;;;;;;;;5079954;27;45529;-73
2023/07/25 05:59:26;;;;;;;;;2.33;1.67;;;;;;;;5079331;27;46189;-73
2023/07/25 06:01:51;;;;;;;;;1.33;1.33;;;;;;;;5079373;27;45287;-73
2023/07/25 06:04:17;;;;;;;;;3.00;2.00;;;;;;;;5079611;27;45372;-73
2023/07/25 06:06:42;;;;;;;;;1.33;1.33;;;;;;;;5079728;28;45743;-73
2023/07/25 06:09:07;;;;;;;;;0.67;0.67;;;;;;;;5079394;28;45993;-73
2023/07/25 06:11:33;;;;;;;;;0.33;0.33;;;;;;;;5079695;28;45286;-72
2023/07/25 06:13:58;;;;;;;;;1.00;0.67;;;;;;;;5079230;28;45384;-73
2023/07/25 06:16:23;;;;;;;;;1.33;0.67;;;;;;;;5079469;27;45283;-73
2023/07/25 06:18:49;;;;;;;;;1.00;0.33;;;;;;;;5079053;28;45508;-73
2023/07/25 06:21:14;;;;;;;;;1.00;0.67;;;;;;;;5079056;27;45460;-73
2023/07/25 06:23:39;;;;;;;;;1.67;1.67;;;;;;;;5078995;28;45636;-73
2023/07/25 06:26:05;;;;;;;;;1.33;1.33;;;;;;;;5079705;28;45282;-71
2023/07/25 06:28:30;;;;;;;;;2.00;2.00;;;;;;;;5078909;27;45459;-73
2023/07/25 06:30:55;;;;;;;;;2.67;1.00;;;;;;;;5077965;27;45560;-71
2023/07/25 06:33:21;;;;;;;;;2.67;1.67;;;;;;;;5078825;27;45468;-71
2023/07/25 06:35:46;;;;;;;;;2.33;2.00;;;;;;;;5079057;27;45499;-73
2023/07/25 06:38:11;;;;;;;;;2.00;2.00;;;;;;;;5078690;27;45388;-72
2023/07/25 06:40:37;;;;;;;;;3.00;3.00;;;;;;;;5079152;27;45481;-73
2023/07/25 06:43:02;;;;;;;;;3.00;2.00;;;;;;;;5078762;27;45870;-72
2023/07/25 06:45:27;;;;;;;;;2.67;2.67;;;;;;;;5078746;27;45224;-72
2023/07/25 06:47:53;;;;;;;;;5.67;4.00;;;;;;;;5078568;28;45854;-72
2023/07/25 06:50:18;;;;;;;;;2.33;2.00;;;;;;;;5077112;28;45234;-72
2023/07/25 06:52:43;;;;;;;;;3.00;3.00;;;;;;;;5078457;28;45535;-72
2023/07/25 06:55:09;;;;;;;;;2.00;2.00;;;;;;;;5078699;27;45523;-71
2023/07/25 06:57:34;;;;;;;;;2.67;2.67;;;;;;;;5078674;28;45237;-72
2023/07/25 06:59:59;;;;;;;;;2.00;2.00;;;;;;;;5078537;27;45345;-72
2023/07/25 07:02:25;;;;;;;;;2.67;2.67;;;;;;;;5078650;28;45345;-72
2023/07/25 07:04:50;;;;;;;;;2.67;2.67;;;;;;;;5078558;27;45671;-72
2023/07/25 07:07:15;;;;;;;;;2.00;2.00;;;;;;;;5078328;28;45288;-73
2023/07/25 07:09:41;;;;;;;;;4.00;4.00;;;;;;;;5078536;27;45227;-72
2023/07/25 07:12:07;;;;;;;;;2.67;2.67;;;;;;;;5100417;27;45444;-72
2023/07/25 07:14:32;;;;;;;;;3.00;2.67;;;;;;;;5107008;27;45552;-72
2023/07/25 07:17:02;;;;;;;;;4.00;3.67;;;;;;;;5097790;27;45411;-72
2023/07/25 07:19:28;;;;;;;;;3.00;2.67;;;;;;;;5079856;27;45385;-72
2023/07/25 07:21:53;;;;;;;;;5.00;3.67;;;;;;;;5097917;27;45370;-73
2023/07/25 07:24:18;;;;;;;;;3.00;3.00;;;;;;;;5098208;27;45474;-73
2023/07/25 07:26:43;;;;;;;;;4.00;4.00;;;;;;;;5097099;27;45884;-72
2023/07/25 07:29:09;;;;;;;;;3.67;2.00;;;;;;;;5096959;27;45425;-72
2023/07/25 07:31:35;;;;;;;;;2.33;2.33;;;;;;;;5097921;27;45331;-73
2023/07/25 07:34:11;;;;;;;;;1.67;1.00;;;;;;;;5097863;27;45283;-72
2023/07/25 07:36:36;;;;;;;;;3.33;2.00;;;;;;;;5096460;27;46134;-74
2023/07/25 07:39:01;;;;;;;;;2.00;2.00;;;;;;;;5109118;27;45395;-71
2023/07/25 07:41:26;;;;;;;;;2.00;2.00;;;;;;;;5108621;27;45549;-73
2023/07/25 07:43:52;;;;;;;;;2.00;2.00;;;;;;;;5102038;27;45554;-73
2023/07/25 07:46:17;;;;;;;;;2.00;2.00;;;;;;;;5104633;27;46289;-71
2023/07/25 07:48:43;;;;;;;;;2.00;2.00;;;;;;;;5106334;27;45348;-72
2023/07/25 07:51:08;;;;;;;;;2.00;2.00;;;;;;;;5103117;27;45423;-71
2023/07/25 07:53:34;;;;;;;;;2.00;2.00;;;;;;;;5097576;27;45496;-70
2023/07/25 07:56:03;;;;;;;;;3.00;3.00;;;;;;;;5099846;27;46145;-71
2023/07/25 07:58:28;;;;;;;;;3.33;3.33;;;;;;;;5105597;27;45566;-71
2023/07/25 08:00:53;;;;;;;;;5.00;4.00;;;;;;;;5102845;27;45459;-71
2023/07/25 08:03:19;;;;;;;;;7.00;5.67;;;;;;;;5100224;27;45439;-72
2023/07/25 08:05:45;;;;;;;;;2.00;2.00;;;;;;;;5096819;27;46390;-71
2023/07/25 08:08:10;;;;;;;;;5.00;4.00;;;;;;;;5098726;27;46022;-70
2023/07/25 08:10:36;;;;;;;;;5.67;5.00;;;;;;;;5097240;27;45366;-70
2023/07/25 08:13:01;;;;;;;;;1.00;1.00;;;;;;;;5096908;27;45429;-71
2023/07/25 08:15:26;;;;;;;;;0.67;0.67;;;;;;;;5101846;27;45516;-71
2023/07/25 08:17:52;;;;;;;;;2.00;1.00;;;;;;;;5098276;27;45412;-70
2023/07/25 08:20:17;;;;;;;;;4.33;4.00;;;;;;;;5096718;27;45384;-71
2023/07/25 08:22:42;;;;;;;;;0.00;0.00;;;;;;;;5097052;27;45249;-70
2023/07/25 08:25:09;;;;;;;;;0.00;0.00;;;;;;;;5096772;27;45493;-70
2023/07/25 08:27:34;;;;;;;;;1.00;0.33;;;;;;;;5096052;27;45449;-70
2023/07/25 08:30:00;;;;;;;;;1.00;0.00;;;;;;;;5096244;27;45360;-70
2023/07/25 08:32:25;;;;;;;;;1.67;1.00;;;;;;;;5096706;27;45342;-71
2023/07/25 08:34:51;;;;;;;;;0.00;0.00;;;;;;;;5096374;27;45866;-71
2023/07/25 08:37:16;;;;;;;;;1.00;1.00;;;;;;;;5095871;27;46346;-71
2023/07/25 08:39:41;;;;;;;;;0.00;0.00;;;;;;;;5096181;27;45396;-71
2023/07/25 08:42:07;;;;;;;;;0.00;0.00;;;;;;;;5096232;27;45376;-73
2023/07/25 08:44:34;;;;;;;;;1.00;0.00;;;;;;;;5096058;27;45492;-72
2023/07/25 08:47:19;;;;;;;;;0.00;0.00;;;;;;;;5093056;27;46267;-72
2023/07/25 08:49:46;;;;;;;;;1.00;1.00;;;;;;;;5093556;27;45381;-73
2023/07/25 08:52:12;;;;;;;;;1.00;1.00;;;;;;;;5096391;27;45272;-72
2023/07/25 08:54:40;;;;;;;;;1.00;1.00;;;;;;;;5096895;27;45188;-72
2023/07/25 08:57:07;;;;;;;;;2.00;2.00;;;;;;;;5099463;27;45668;-72
2023/07/25 08:59:32;;;;;;;;;1.00;1.00;;;;;;;;5099314;27;45518;-72
2023/07/25 09:01:58;;;;;;;;;2.00;2.00;;;;;;;;5099409;27;45554;-72
2023/07/25 09:04:24;;;;;;;;;1.00;1.00;;;;;;;;5097781;27;45568;-72
2023/07/25 09:06:50;;;;;;;;;0.33;0.33;;;;;;;;5098926;27;45246;-73
2023/07/25 09:09:15;;;;;;;;;2.33;2.00;;;;;;;;5099467;27;45381;-72
2023/07/25 09:11:41;;;;;;;;;0.00;0.00;;;;;;;;5098470;27;45595;-71
2023/07/25 09:14:07;;;;;;;;;1.00;1.00;;;;;;;;5098936;27;45486;-72
2023/07/25 09:16:32;;;;;;;;;1.00;0.00;;;;;;;;5098909;27;45352;-71
2023/07/25 09:18:58;;;;;;;;;2.33;2.33;;;;;;;;5097831;27;45443;-71
2023/07/25 09:21:23;;;;;;;;;2.00;1.00;;;;;;;;5099256;27;45331;-73
2023/07/25 09:23:52;;;;;;;;;0.00;0.00;;;;;;;;5098978;27;46050;-73
2023/07/25 09:26:20;;;;;;;;;0.67;0.67;;;;;;;;5107546;27;45299;-74
2023/07/25 09:28:52;;;;;;;;;0.00;0.00;;;;;;;;5109509;27;45310;-74
2023/07/25 09:31:21;;;;;;;;;1.00;0.00;;;;;;;;5105505;27;45284;-74
2023/07/25 09:33:48;;;;;;;;;0.33;0.33;;;;;;;;5108675;27;45443;-73
2023/07/25 09:36:13;;;;;;;;;4.00;3.33;;;;;;;;5110218;27;45440;-74
2023/07/25 09:38:53;;;;;;;;;2.00;2.00;;;;;;;;5108175;27;45404;-74
2023/07/25 09:41:19;;;;;;;;;2.67;2.00;;;;;;;;5105770;27;45499;-74
2023/07/25 09:43:45;;;;;;;;;0.00;0.00;;;;;;;;5109307;27;45937;-71
2023/07/25 09:46:10;;;;;;;;;2.00;2.00;;;;;;;;5108531;27;45445;-71
2023/07/25 09:48:36;;;;;;;;;2.67;2.00;;;;;;;;5108485;27;45530;-75
2023/07/25 09:51:02;;;;;;;;;2.00;1.00;;;;;;;;5107716;27;45499;-72
2023/07/25 09:53:29;;;;;;;;;1.33;1.33;;;;;;;;5109118;27;46122;-73
2023/07/25 09:55:55;;;;;;;;;1.33;1.00;;;;;;;;5108943;27;45286;-74
2023/07/25 09:58:21;;;;;;;;;2.00;1.00;;;;;;;;5107814;27;45474;-74
2023/07/25 10:00:46;;;;;;;;;2.00;2.00;;;;;;;;5109419;27;45294;-73
2023/07/25 10:03:12;;;;;;;;;2.00;1.00;;;;;;;;5109236;27;46096;-72
2023/07/25 10:21:53;;;;;;;;;2.67;2.67;;;;;22.63;58.96;100476.38;5049400;28;45279;-73
2023/07/25 10:24:22;;;;;;;;;3.33;2.00;;;;;22.88;57.21;100507.78;5032436;28;45473;-75
2023/07/25 10:26:53;;;;;;;;;1.00;0.67;;;;;22.43;58.53;100522.03;5032553;28;45375;-75
2023/07/25 10:29:39;;;;;;;;;1.33;1.33;;;;;22.27;57.94;100520.56;5030844;28;45465;-75
2023/07/25 10:32:05;;;;;;;;;1.00;1.00;;;;;21.76;59.10;100487.72;5013355;28;46256;-72
2023/07/25 10:34:47;;;;;;;;;3.00;2.00;;;;;21.77;58.66;100499.25;5024270;28;45516;-76
2023/07/25 10:37:23;;;;;;;;;1.00;1.00;;;;;22.11;58.65;100523.47;5033216;28;45581;-72
2023/07/25 10:40:02;;;;;;;;;2.33;2.33;;;;;22.13;59.95;100539.41;5032562;28;45462;-72
2023/07/25 10:42:42;;;;;;;;;1.00;1.00;;;;;21.72;60.75;100501.97;5034332;28;46382;-70
2023/07/25 10:45:19;;;;;;;;;2.00;1.00;;;;;21.68;59.88;100510.03;5032494;28;45834;-72
2023/07/25 10:47:46;;;;;;;;;0.67;0.00;;;;;21.94;59.86;100518.44;5034451;28;45390;-75
2023/07/25 10:50:11;;;;;;;;;2.00;1.00;;;;;22.39;58.92;100525.66;5032476;28;45701;-72
2023/07/25 10:52:46;;;;;;;;;1.00;1.00;;;;;22.81;57.74;100529.25;5032386;28;45300;-72
2023/07/25 10:55:13;;;;;;;;;0.00;0.00;;;;;23.17;56.70;100534.72;5032801;28;45444;-71
2023/07/25 10:57:39;;;;;;;;;1.33;1.33;;;;;23.05;56.89;100487.03;5041575;28;45264;-71
2023/07/25 11:00:08;;;;;;;;;1.00;0.00;;;;;23.32;56.09;100530.84;5040033;28;45443;-71
2023/07/25 11:02:39;;;;;;;;;0.67;0.67;;;;;23.56;55.70;100528.53;5037879;28;46506;-71
2023/07/25 11:05:14;;;;;;;;;2.00;2.00;;;;;23.81;55.21;100531.47;5039821;28;45466;-74
2023/07/25 11:07:48;;;;;;;;;2.67;1.00;;;;;23.79;55.61;100534.19;5037553;28;45415;-70
2023/07/25 11:10:25;;;;;;;;;7.33;5.33;;;;;23.76;56.28;100530.69;5029164;28;45816;-70
2023/07/25 11:13:02;;;;;;;;;3.00;2.00;;;;;23.75;56.77;100528.94;5028325;28;46583;-70
2023/07/25 11:15:32;;;;;;;;;3.67;2.00;;;;;23.63;57.09;100538.09;5030835;28;45673;-69
2023/07/25 11:18:07;;;;;;;;;2.00;1.00;;;;;23.62;58.12;100550.56;5028692;28;45436;-70
2023/07/25 11:20:36;;;;;;;;;1.67;1.67;;;;;23.72;58.05;100551.22;5038351;28;45456;-70
2023/07/25 11:23:01;;;;;;;;;2.00;2.00;;;;;23.89;56.32;100553.50;5037580;28;45493;-71
2023/07/25 11:25:27;;;;;;;;;2.00;2.00;;;;;24.00;56.30;100551.44;5037594;28;45472;-75
2023/07/25 11:27:53;;;;;;;;;1.33;1.33;;;;;24.00;55.85;100554.13;5038045;28;45299;-75
2023/07/25 11:30:20;;;;;;;;;3.00;2.33;;;;;24.07;56.55;100543.28;5037760;28;45529;-76
2023/07/25 11:32:48;;;;;;;;;1.00;1.00;;;;;24.27;55.73;100545.41;5037743;28;45473;-76
2023/07/25 11:35:17;;;;;;;;;5.00;2.00;;;;;24.34;55.30;100547.03;5037743;28;45369;-75
2023/07/25 11:37:47;;;;;;;;;0.33;0.33;;;;;24.51;54.76;100549.25;5038250;28;45428;-75
2023/07/25 11:40:17;;;;;;;;;0.67;0.67;;;;;24.64;54.07;100540.00;5038736;28;45423;-76
2023/07/25 11:42:44;;;;;;;;;2.00;2.00;;;;;24.74;54.09;100537.94;5038395;28;46157;-74
2023/07/25 11:45:11;;;;;;;;;1.00;1.00;;;;;24.76;53.94;100536.97;5038473;28;45251;-75
2023/07/25 11:47:45;;;;;;;;;1.67;1.33;;;;;24.78;54.37;100532.44;5038529;28;45280;-76
2023/07/25 11:50:12;;;;;;;;;3.00;2.00;;;;;24.64;53.87;100537.31;5038281;28;45529;-74
2023/07/25 11:52:40;;;;;;;;;2.00;1.00;;;;;24.56;53.90;100537.53;5038314;28;45351;-77
2023/07/25 11:55:10;;;;;;;;;3.67;3.00;;;;;24.56;54.38;100528.66;5037968;28;45468;-74
2023/07/25 11:57:37;;;;;;;;;9.00;7.67;;;;;24.72;54.47;100529.09;5038163;28;45383;-75
2023/07/25 12:00:12;;;;;;;;;6.67;6.67;;;;;24.83;54.24;100521.66;5038384;28;45543;-76
2023/07/25 12:02:42;;;;;;;;;2.00;2.00;;;;;24.93;53.19;100514.19;5037886;28;46590;-76
2023/07/25 12:05:40;;;;;;;;;2.00;2.00;;;;;25.01;53.26;100530.91;5038129;28;45437;-76
2023/07/25 12:08:05;;;;;;;;;0.00;0.00;;;;;25.01;53.70;100530.91;5014798;28;45265;-75
2023/07/25 12:10:33;;;;;;;;;6.00;5.00;;;;;24.90;54.17;100527.66;5037800;28;45211;-74
2023/07/25 12:13:08;;;;;;;;;27.00;20.67;;;;;24.97;54.12;100531.94;5037817;28;46189;-76
2023/07/25 12:15:49;;;;;;;;;12.00;9.33;;;;;25.05;53.74;100537.91;5037592;28;45273;-76
2023/07/25 12:18:29;;;;;;;;;6.00;5.33;;;;;24.76;54.83;100523.59;5038101;28;45197;-76
2023/07/25 12:20:56;;;;;;;;;2.33;2.00;;;;;24.65;54.90;100548.88;5037256;28;45574;-75
2023/07/25 12:23:29;;;;;;;;;5.00;4.33;;;;;24.36;55.42;100558.53;5037826;28;45421;-74
2023/07/25 12:25:56;;;;;;;;;4.67;4.67;;;;;24.02;57.40;100576.31;5037038;28;45311;-75
2023/07/25 12:28:22;;;;;;;;;5.00;5.00;;;;;23.91;57.77;100573.00;5037603;28;45444;-74
2023/07/25 12:30:48;;;;;;;;;4.00;2.00;;;;;23.61;57.90;100575.47;5037544;28;45394;-74
2023/07/25 12:33:13;;;;;;;;;3.00;3.00;;;;;23.29;59.68;100573.53;5036606;28;46106;-74
2023/07/25 12:35:39;;;;;;;;;4.00;3.00;;;;;23.22;58.90;100582.59;5037993;28;45352;-76
2023/07/25 12:38:04;;;;;;;;;5.00;4.67;;;;;23.11;58.54;100569.50;5038441;28;45505;-76
2023/07/25 12:40:30;;;;;;;;;3.33;2.67;;;;;23.16;58.02;100580.06;5037885;28;45292;-76
2023/07/25 12:42:55;;;;;;;;;2.33;2.00;;;;;23.12;59.20;100581.91;5035868;28;46596;-76
2023/07/25 12:45:21;;;;;;;;;2.67;2.00;;;;;23.13;59.38;100585.47;5037957;28;45212;-75
2023/07/25 12:47:46;;;;;;;;;2.00;2.00;;;;;23.06;60.18;100595.38;5037184;28;45379;-76
2023/07/25 12:50:12;;;;;;;;;2.67;1.33;;;;;22.92;59.03;100595.63;5037814;28;45153;-77
2023/07/25 12:52:38;;;;;;;;;4.00;3.33;;;;;22.94;60.00;100590.25;5035865;28;46716;-76
2023/07/25 12:55:05;;;;;;;;;2.00;1.00;;;;;22.82;60.42;100592.25;5035980;28;45674;-76
2023/07/25 12:57:30;;;;;;;;;1.67;1.00;;;;;22.75;60.41;100585.28;5037476;28;45498;-76
2023/07/25 12:59:56;;;;;;;;;2.00;1.33;;;;;22.83;59.99;100590.47;5036164;28;45287;-77
2023/07/25 13:02:21;;;;;;;;;3.33;2.00;;;;;22.75;61.58;100603.94;5037290;28;45553;-77
2023/07/25 13:04:46;;;;;;;;;2.00;1.00;;;;;22.73;60.96;100607.53;5035757;28;45495;-75
2023/07/25 13:07:13;;;;;;;;;2.00;2.00;;;;;22.64;60.50;100608.56;5036162;28;45376;-75
2023/07/25 13:09:39;;;;;;;;;4.00;4.00;;;;;22.77;60.92;100604.78;5035991;28;45668;-75
2023/07/25 13:12:05;;;;;;;;;3.33;3.00;;;;;22.88;60.53;100611.69;5036783;28;46142;-77
2023/07/25 13:14:30;;;;;;;;;1.00;1.00;;;;;23.03;59.17;100598.97;5035758;28;45451;-77
2023/07/25 13:16:56;;;;;;;;;9.67;8.00;;;;;23.25;59.34;100585.19;5037228;28;45488;-76
2023/07/25 13:19:22;;;;;;;;;5.00;5.00;;;;;23.26;59.55;100586.06;5037379;28;45311;-76
2023/07/25 13:21:47;;;;;;;;;2.00;2.00;;;;;23.47;58.65;100590.91;5036775;28;45363;-77
2023/07/25 13:24:13;;;;;;;;;1.00;1.00;;;;;23.65;58.90;100591.41;5035777;28;45469;-75
2023/07/25 13:26:38;;;;;;;;;1.00;1.00;;;;;23.76;58.18;100595.59;5035594;28;45298;-76
2023/07/25 13:29:04;;;;;;;;;5.00;5.00;;;;;23.79;57.48;100573.31;5036757;28;45496;-76
2023/07/25 13:31:30;;;;;;;;;0.00;0.00;;;;;24.05;57.11;100593.16;5035151;28;47201;-77
2023/07/25 13:33:55;;;;;;;;;2.00;0.00;;;;;24.14;56.43;100603.59;5036573;28;45316;-77
2023/07/25 13:36:21;;;;;;;;;1.00;1.00;;;;;24.00;56.50;100602.16;5037830;28;45277;-77
2023/07/25 13:38:47;;;;;;;;;1.00;1.00;;;;;23.99;56.88;100592.41;5037126;28;45223;-76
2023/07/25 13:41:13;;;;;;;;;3.00;2.00;;;;;24.13;56.66;100599.16;5034593;28;48036;-76
2023/07/25 13:43:38;;;;;;;;;1.00;1.00;;;;;24.20;56.62;100579.41;5036290;28;45492;-74
2023/07/25 13:46:04;;;;;;;;;1.00;1.00;;;;;24.61;55.14;100585.47;5036557;28;45378;-76
2023/07/25 13:48:29;;;;;;;;;2.33;2.00;;;;;24.98;54.27;100579.09;5036561;28;45434;-76
2023/07/25 13:50:55;;;;;;;;;2.00;1.00;;;;;25.21;53.59;100570.41;5033972;28;47279;-77
2023/07/25 13:53:21;;;;;;;;;1.00;1.00;;;;;25.52;53.47;100581.03;5035745;28;45320;-77